Time;durP1;ratioP1;P1;durP2;ratioP2;P2;SDS_P1;SDS_P2;PMS_P1;PMS_P2;Temp;Humidity;BMP_temperature;BMP_pressure;BME280_temperature;BME280_humidity;BME280_pressure;Samples;Min_cycle;Max_cycle;Signal;HPM_P1;HPM_P2
2022/12/13 00:01:26;;;;;;;8.85;2.08;;;-1.20;99.90;;;;;;5096350;28;20147;-63
2022/12/13 00:03:58;;;;;;;16.05;3.03;;;-1.10;99.90;;;;;;5102361;28;20069;-62
2022/12/13 00:06:28;;;;;;;6.68;2.03;;;-1.10;99.90;;;;;;5084302;28;20124;-62
2022/12/13 00:08:55;;;;;;;15.00;3.65;;;-1.20;99.90;;;;;;5101148;28;20051;-67
2022/12/13 00:11:21;;;;;;;10.25;2.47;;;-1.10;99.90;;;;;;5097565;28;20428;-63
2022/12/13 00:13:48;;;;;;;6.65;2.45;;;-1.20;99.90;;;;;;5101652;28;20117;-62
2022/12/13 00:16:18;;;;;;;7.40;2.20;;;-1.10;99.90;;;;;;5105493;28;20047;-63
2022/12/13 00:18:49;;;;;;;9.15;1.90;;;-1.20;99.90;;;;;;5102749;28;20089;-62
2022/12/13 00:21:20;;;;;;;5.78;1.77;;;-1.30;99.90;;;;;;5098313;28;20140;-62
2022/12/13 00:23:47;;;;;;;5.85;2.05;;;-1.20;99.90;;;;;;5104409;28;20040;-62
2022/12/13 00:26:17;;;;;;;4.72;2.30;;;-1.30;99.90;;;;;;5083323;28;20040;-63
2022/12/13 00:28:47;;;;;;;5.57;2.28;;;-1.20;99.90;;;;;;5098230;28;20112;-64
2022/12/13 00:31:16;;;;;;;6.03;1.92;;;-1.20;99.90;;;;;;5093055;28;20601;-65
2022/12/13 00:34:03;;;;;;;8.43;2.47;;;-1.20;99.90;;;;;;5102011;28;20039;-63
2022/12/13 00:36:30;;;;;;;6.43;1.92;;;-1.30;99.90;;;;;;5100071;28;20131;-64
2022/12/13 00:39:00;;;;;;;5.40;1.73;;;-1.30;99.90;;;;;;5096034;28;20056;-65
2022/12/13 00:41:30;;;;;;;4.47;1.60;;;-1.20;99.90;;;;;;5094738;28;20048;-64
2022/12/13 00:43:57;;;;;;;1.95;1.42;;;-1.20;99.90;;;;;;5099552;28;20044;-64
2022/12/13 00:46:25;;;;;;;4.20;1.40;;;-1.10;99.90;;;;;;5098621;28;20051;-67
2022/12/13 00:48:54;;;;;;;8.20;1.63;;;-1.10;99.90;;;;;;5097828;28;20066;-67
2022/12/13 00:51:22;;;;;;;8.55;3.85;;;-1.10;99.90;;;;;;5097648;28;20075;-62
2022/12/13 00:53:50;;;;;;;5.13;1.73;;;-1.10;99.90;;;;;;5103443;28;20061;-63
2022/12/13 00:56:20;;;;;;;3.42;1.70;;;-1.20;99.90;;;;;;5099231;28;20046;-63
2022/12/13 00:58:48;;;;;;;5.43;1.48;;;-1.20;99.90;;;;;;5098702;27;20044;-62
2022/12/13 01:01:20;;;;;;;9.63;1.20;;;-1.20;99.90;;;;;;5098605;28;20123;-65
2022/12/13 01:03:48;;;;;;;9.73;2.47;;;-1.20;99.90;;;;;;5097123;28;20138;-63
2022/12/13 01:06:22;;;;;;;5.63;1.58;;;-1.10;99.90;;;;;;5099371;28;20047;-66
2022/12/13 01:08:49;;;;;;;4.20;1.42;;;-1.10;99.90;;;;;;5105104;27;20061;-63
2022/12/13 01:11:16;;;;;;;8.52;2.90;;;-1.10;99.90;;;;;;5096965;28;20062;-66
2022/12/13 01:13:43;;;;;;;7.32;2.78;;;-1.20;99.90;;;;;;5099224;28;20059;-62
2022/12/13 01:16:12;;;;;;;10.70;2.33;;;-1.10;99.90;;;;;;5104923;28;20062;-66
2022/12/13 01:18:40;;;;;;;6.30;2.20;;;-1.10;99.90;;;;;;5099308;28;20164;-62
2022/12/13 01:21:11;;;;;;;2.90;1.27;;;-1.20;99.90;;;;;;5100402;28;20077;-64
2022/12/13 01:23:39;;;;;;;5.30;2.30;;;-1.20;99.90;;;;;;5097935;28;20043;-62
2022/12/13 01:26:11;;;;;;;4.10;1.50;;;-1.10;99.90;;;;;;5098973;28;20043;-62
2022/12/13 01:28:38;;;;;;;4.20;2.78;;;-1.10;99.90;;;;;;5097515;28;20130;-63
2022/12/13 01:31:09;;;;;;;7.97;4.03;;;-1.20;99.90;;;;;;5103400;28;20056;-63
2022/12/13 01:33:36;;;;;;;;;;;-1.20;99.90;;;;;;5101159;28;20115;-67
2022/12/13 01:36:07;;;;;;;2.45;1.17;;;-1.10;99.90;;;;;;5102235;28;19947;-62
2022/12/13 01:38:34;;;;;;;5.35;2.78;;;-1.10;99.90;;;;;;5101249;28;20051;-63
2022/12/13 01:41:04;;;;;;;7.85;2.25;;;-1.10;99.90;;;;;;5102303;28;20051;-65
2022/12/13 01:43:43;;;;;;;2.00;1.75;;;-1.10;99.90;;;;;;5101052;28;20081;-64
2022/12/13 01:46:12;;;;;;;4.70;1.50;;;-1.20;99.90;;;;;;5097041;28;20043;-69
2022/12/13 01:48:50;;;;;;;4.82;1.52;;;-1.30;99.90;;;;;;5100208;28;20530;-66
2022/12/13 01:51:20;;;;;;;2.58;1.42;;;-1.30;99.90;;;;;;5098151;28;20468;-68
2022/12/13 01:53:48;;;;;;;4.68;1.20;;;-1.20;99.90;;;;;;5101100;28;20573;-64
2022/12/13 01:56:21;;;;;;;2.70;1.65;;;-1.20;99.90;;;;;;5097659;28;20048;-66
2022/12/13 01:58:50;;;;;;;5.85;2.78;;;-1.20;99.90;;;;;;5100724;28;20051;-66
2022/12/13 02:01:18;;;;;;;2.80;1.05;;;-1.10;99.90;;;;;;5082535;28;20075;-65
2022/12/13 02:03:45;;;;;;;2.45;1.45;;;-1.10;99.90;;;;;;5095522;28;20130;-66
2022/12/13 02:06:17;;;;;;;2.92;1.33;;;-1.20;99.90;;;;;;5101376;28;20039;-68
2022/12/13 02:08:45;;;;;;;3.30;1.20;;;-1.20;99.90;;;;;;5100736;28;20047;-65
2022/12/13 02:11:14;;;;;;;5.70;1.88;;;-1.10;99.90;;;;;;5100563;28;20052;-65
2022/12/13 02:13:41;;;;;;;7.45;4.10;;;-1.10;99.90;;;;;;5096345;28;20595;-65
2022/12/13 02:16:25;;;;;;;1.80;1.38;;;-1.20;99.90;;;;;;5099560;28;20482;-65
2022/12/13 02:19:27;;;;;;;7.05;1.75;;;-1.10;99.90;;;;;;5097943;28;20047;-65
2022/12/13 02:22:09;;;;;;;3.47;0.95;;;-1.10;99.90;;;;;;5097606;28;20061;-66
2022/12/13 02:24:54;;;;;;;2.60;1.65;;;-1.10;99.90;;;;;;5099469;28;20150;-65
2022/12/13 02:27:40;;;;;;;4.38;1.38;;;-1.00;99.90;;;;;;5098471;28;20055;-66
2022/12/13 02:30:29;;;;;;;5.88;1.67;;;-1.00;99.90;;;;;;5099678;28;20052;-64
2022/12/13 02:33:14;;;;;;;3.67;2.15;;;-1.00;99.90;;;;;;5098798;28;20063;-64
2022/12/13 02:35:56;;;;;;;1.92;1.08;;;-1.00;99.90;;;;;;5097776;28;20047;-64
2022/12/13 02:38:33;;;;;;;5.20;1.83;;;-1.10;99.90;;;;;;5104979;28;20055;-63
2022/12/13 02:41:36;;;;;;;8.80;1.92;;;-1.00;99.90;;;;;;5097071;28;20123;-63
2022/12/13 02:44:10;;;;;;;4.15;1.00;;;-1.00;99.90;;;;;;5092998;28;20048;-68
2022/12/13 02:47:00;;;;;;;2.10;1.10;;;-1.00;99.90;;;;;;5093378;28;20060;-64
2022/12/13 02:49:31;;;;;;;5.13;1.65;;;-1.10;99.90;;;;;;5100018;28;20054;-63
2022/12/13 02:52:00;;;;;;;6.10;1.40;;;-1.10;99.90;;;;;;5101436;28;20145;-63
2022/12/13 02:54:27;;;;;;;5.70;2.05;;;-1.10;99.90;;;;;;5098697;28;20056;-63
2022/12/13 02:56:55;;;;;;;2.17;1.73;;;-1.10;99.90;;;;;;5105121;28;20047;-63
2022/12/13 02:59:28;;;;;;;9.48;3.15;;;-1.10;99.90;;;;;;5102056;28;20130;-64
2022/12/13 03:02:03;;;;;;;2.45;1.23;;;-1.10;99.90;;;;;;5100487;28;20060;-66
2022/12/13 03:07:43;;;;;;;8.30;1.88;;;-1.30;99.90;;;;;;5099887;28;21007;-63
2022/12/13 03:10:24;;;;;;;6.32;1.27;;;-1.40;99.90;;;;;;5103843;28;20151;-65
2022/12/13 03:15:53;;;;;;;2.55;2.03;;;-1.50;99.90;;;;;;5102411;27;20150;-62
2022/12/13 03:18:22;;;;;;;6.28;1.80;;;-1.50;99.90;;;;;;5103369;27;20048;-63
2022/12/13 03:21:12;;;;;;;7.85;1.67;;;-1.40;99.90;;;;;;5096801;28;20443;-66
2022/12/13 03:23:38;;;;;;;11.90;2.60;;;-1.40;99.90;;;;;;5101388;27;20051;-65
2022/12/13 03:26:08;;;;;;;7.15;1.75;;;-1.60;99.90;;;;;;5104795;27;20051;-63
2022/12/13 03:28:35;;;;;;;9.45;1.92;;;-1.50;99.90;;;;;;5100617;28;20418;-63
2022/12/13 03:31:02;;;;;;;8.43;1.58;;;-1.60;99.90;;;;;;5098787;28;20545;-63
2022/12/13 03:33:29;;;;;;;4.45;1.67;;;-1.50;99.90;;;;;;5100031;28;20040;-64
2022/12/13 03:35:57;;;;;;;9.85;2.90;;;-1.50;99.90;;;;;;5102405;28;20048;-62
2022/12/13 03:38:24;;;;;;;6.07;2.45;;;-1.50;99.90;;;;;;5106244;28;20054;-63
2022/12/13 03:40:54;;;;;;;8.73;1.95;;;-1.40;99.90;;;;;;5104632;28;20051;-63
2022/12/13 03:43:22;;;;;;;6.07;2.00;;;-1.40;99.90;;;;;;5101046;28;20053;-64
2022/12/13 03:45:50;;;;;;;7.93;2.65;;;-1.30;99.90;;;;;;5102987;28;20055;-67
2022/12/13 03:48:17;;;;;;;5.00;2.15;;;-1.50;99.90;;;;;;5099478;28;20146;-66
2022/12/13 03:50:51;;;;;;;4.80;2.10;;;-1.70;99.90;;;;;;5105223;28;20047;-64
2022/12/13 03:53:18;;;;;;;8.63;2.28;;;-1.70;99.90;;;;;;5102643;27;20075;-64
2022/12/13 03:55:59;;;;;;;;;;;-1.70;99.90;;;;;;5099091;28;20584;-63
2022/12/13 03:58:27;;;;;;;15.52;2.75;;;-1.80;99.90;;;;;;5103322;28;20014;-63
2022/12/13 04:01:11;;;;;;;6.00;2.42;;;-1.80;99.90;;;;;;5102373;28;20109;-63
2022/12/13 04:03:40;;;;;;;7.53;3.08;;;-1.80;99.90;;;;;;5101145;27;20047;-63
2022/12/13 04:06:08;;;;;;;4.50;3.03;;;-1.70;99.90;;;;;;5103201;28;20389;-64
2022/12/13 04:08:36;;;;;;;5.72;2.40;;;-1.70;99.90;;;;;;5104389;28;20071;-65
2022/12/13 04:13:31;;;;;;;2.85;2.58;;;-1.60;99.90;;;;;;5102630;28;20035;-64
2022/12/13 04:13:52;;;;;;;9.52;2.00;;;-1.60;99.90;;;;;;5101401;28;20058;-62
2022/12/13 04:16:19;;;;;;;7.03;1.92;;;-1.60;99.90;;;;;;5104035;28;20134;-64
2022/12/13 04:18:46;;;;;;;2.22;1.50;;;-1.50;99.90;;;;;;5103678;28;20180;-63
2022/12/13 04:21:13;;;;;;;5.20;2.22;;;-1.50;99.90;;;;;;5105255;27;20048;-63
2022/12/13 04:23:40;;;;;;;4.10;2.35;;;-1.60;99.90;;;;;;5085332;28;20169;-63
2022/12/13 04:26:07;;;;;;;8.82;2.40;;;-1.60;99.90;;;;;;5102876;28;20047;-63
2022/12/13 04:28:34;;;;;;;5.22;1.88;;;-1.60;99.90;;;;;;5101796;28;20043;-63
2022/12/13 04:31:01;;;;;;;6.47;2.28;;;-1.60;99.90;;;;;;5103651;28;20056;-63
2022/12/13 04:33:31;;;;;;;7.47;2.58;;;-1.50;99.90;;;;;;5104721;27;20071;-65
2022/12/13 04:35:58;;;;;;;6.38;2.50;;;-1.50;99.90;;;;;;5100095;28;20072;-63
2022/12/13 04:38:25;;;;;;;4.30;1.83;;;-1.50;99.90;;;;;;5102981;28;20048;-65
2022/12/13 04:40:52;;;;;;;5.38;2.17;;;-1.50;99.90;;;;;;5098626;28;20036;-64
2022/12/13 04:43:19;;;;;;;8.13;2.08;;;-1.50;99.90;;;;;;5099259;28;20126;-63
2022/12/13 04:45:46;;;;;;;8.00;2.22;;;-1.50;99.90;;;;;;5103626;28;20054;-62
2022/12/13 04:48:12;;;;;;;2.33;1.90;;;-1.50;99.90;;;;;;5103624;28;20061;-63
2022/12/13 04:50:58;;;;;;;6.75;1.70;;;-1.50;99.90;;;;;;5099934;28;20048;-64
2022/12/13 04:53:28;;;;;;;5.35;1.95;;;-1.60;99.90;;;;;;5103586;28;20046;-63
2022/12/13 04:55:55;;;;;;;1.98;1.17;;;-1.50;99.90;;;;;;5094616;28;20047;-63
2022/12/13 04:58:22;;;;;;;1.83;1.55;;;-1.50;99.90;;;;;;5102321;28;20069;-64
2022/12/13 05:00:49;;;;;;;5.88;1.85;;;-1.50;99.90;;;;;;5097173;28;20066;-64
2022/12/13 05:03:16;;;;;;;4.25;2.00;;;-1.50;99.90;;;;;;5099128;28;20067;-63
2022/12/13 05:05:43;;;;;;;3.53;1.60;;;-1.60;99.90;;;;;;5101404;28;20058;-63
2022/12/13 05:08:09;;;;;;;6.25;2.20;;;-1.60;99.90;;;;;;5101354;28;20127;-66
2022/12/13 05:10:36;;;;;;;1.95;1.20;;;-1.50;99.90;;;;;;5098529;28;20138;-62
2022/12/13 05:13:05;;;;;;;1.25;1.15;;;-1.60;99.90;;;;;;5099637;28;20052;-63
2022/12/13 05:15:33;;;;;;;3.00;1.92;;;-1.60;99.90;;;;;;5102754;27;20240;-63
2022/12/13 05:18:01;;;;;;;5.05;1.67;;;-1.60;99.90;;;;;;5101928;28;20106;-63
2022/12/13 05:20:40;;;;;;;4.20;1.58;;;-1.60;99.90;;;;;;5101253;28;20083;-64
2022/12/13 05:23:07;;;;;;;5.85;1.50;;;-1.60;99.90;;;;;;5102622;28;20048;-62
2022/12/13 05:25:35;;;;;;;4.22;1.65;;;-1.70;99.90;;;;;;5100084;28;20058;-64
2022/12/13 05:28:04;;;;;;;6.15;2.20;;;-1.60;99.90;;;;;;5100556;28;20070;-63
2022/12/13 05:30:53;;;;;;;7.68;3.50;;;-1.70;99.90;;;;;;5100059;28;20425;-65
2022/12/13 05:33:20;;;;;;;3.03;2.03;;;-1.70;99.90;;;;;;5099660;28;20051;-66
2022/12/13 05:35:47;;;;;;;4.40;1.23;;;-1.70;99.90;;;;;;5097745;28;20067;-62
2022/12/13 05:38:15;;;;;;;3.35;1.65;;;-1.70;99.90;;;;;;5099211;28;20123;-64
2022/12/13 05:40:42;;;;;;;5.68;2.63;;;-1.80;99.90;;;;;;5102609;28;20829;-63
2022/12/13 05:43:10;;;;;;;4.93;3.17;;;-1.80;99.90;;;;;;5101439;28;20032;-63
2022/12/13 05:45:48;;;;;;;8.00;2.45;;;-1.80;99.90;;;;;;5100281;28;20048;-63
2022/12/13 05:48:15;;;;;;;3.42;2.00;;;-1.70;99.90;;;;;;5096934;28;20043;-62
2022/12/13 05:50:51;;;;;;;6.93;1.67;;;-1.70;99.90;;;;;;5102955;28;20047;-63
2022/12/13 05:53:36;;;;;;;4.30;1.88;;;-1.80;99.90;;;;;;5094024;28;20453;-63
2022/12/13 05:56:03;;;;;;;2.83;1.80;;;-1.80;99.90;;;;;;5096900;28;20043;-67
2022/12/13 05:58:30;;;;;;;3.17;1.50;;;-1.80;99.90;;;;;;5098435;28;20054;-67
2022/12/13 06:01:10;;;;;;;5.53;2.45;;;-1.70;99.90;;;;;;5099739;28;20070;-63
2022/12/13 06:03:38;;;;;;;6.72;2.00;;;-1.80;99.90;;;;;;5098470;28;20052;-63
2022/12/13 06:06:07;;;;;;;3.75;2.45;;;-1.90;99.90;;;;;;5101752;28;20402;-62
2022/12/13 06:08:34;;;;;;;3.17;2.25;;;-1.90;99.90;;;;;;5099849;28;20107;-67
2022/12/13 06:11:02;;;;;;;9.70;2.15;;;-1.80;99.90;;;;;;5101187;28;20061;-63
2022/12/13 06:13:39;;;;;;;10.60;2.20;;;-1.80;99.90;;;;;;5099412;28;20115;-63
2022/12/13 06:16:10;;;;;;;4.80;1.77;;;-1.90;99.90;;;;;;5101592;28;20046;-62
2022/12/13 06:18:51;;;;;;;4.40;1.80;;;-1.80;99.90;;;;;;5093791;28;20048;-64
2022/12/13 06:21:28;;;;;;;3.72;1.52;;;-1.90;99.90;;;;;;5091563;28;20055;-63
2022/12/13 06:24:12;;;;;;;6.60;2.25;;;-1.80;99.90;;;;;;5096188;28;20113;-64
2022/12/13 06:26:39;;;;;;;5.32;1.67;;;-1.80;99.90;;;;;;5098026;28;20055;-65
2022/12/13 06:29:06;;;;;;;3.22;1.75;;;-1.80;99.90;;;;;;5098577;28;20180;-62
2022/12/13 06:31:32;;;;;;;2.78;1.90;;;-1.90;99.90;;;;;;5098074;28;20044;-62
2022/12/13 06:34:03;;;;;;;5.05;2.42;;;-1.90;99.90;;;;;;5100517;28;20507;-67
2022/12/13 06:36:41;;;;;;;3.55;1.85;;;-1.90;99.90;;;;;;5102636;28;20035;-64
2022/12/13 06:39:08;;;;;;;3.75;1.73;;;-1.90;99.90;;;;;;5104558;28;20431;-62
2022/12/13 06:41:35;;;;;;;3.45;1.98;;;-1.90;99.90;;;;;;5101065;28;20408;-66
2022/12/13 06:44:03;;;;;;;1.88;1.45;;;-2.00;99.90;;;;;;5096071;28;20055;-63
2022/12/13 06:46:31;;;;;;;5.18;1.70;;;-2.00;99.90;;;;;;5104559;28;20078;-62
2022/12/13 06:48:57;;;;;;;3.30;1.98;;;-2.00;99.90;;;;;;5104287;27;20035;-63
2022/12/13 06:51:25;;;;;;;5.85;1.92;;;-1.90;99.90;;;;;;5101146;28;20469;-64
2022/12/13 06:54:01;;;;;;;6.55;2.63;;;-1.90;99.90;;;;;;5103208;28;20098;-67
2022/12/13 06:56:28;;;;;;;4.60;1.70;;;-1.90;99.90;;;;;;5100235;28;20039;-63
2022/12/13 06:58:56;;;;;;;6.55;2.55;;;-2.00;99.90;;;;;;5102819;28;20050;-63
2022/12/13 07:01:28;;;;;;;2.08;1.67;;;-2.00;99.90;;;;;;5097217;28;20044;-63
2022/12/13 07:04:05;;;;;;;2.63;1.50;;;-2.00;99.90;;;;;;5102698;28;20399;-64
2022/12/13 07:06:52;;;;;;;6.00;2.95;;;-2.10;99.90;;;;;;5098266;28;20040;-66
2022/12/13 07:09:18;;;;;;;6.22;2.72;;;-2.00;99.90;;;;;;5095480;28;20043;-65
2022/12/13 07:11:46;;;;;;;3.78;1.85;;;-2.00;99.90;;;;;;5100617;28;20052;-64
2022/12/13 07:14:18;;;;;;;3.78;1.77;;;-2.00;99.90;;;;;;5097743;28;20150;-63
2022/12/13 07:16:45;;;;;;;3.80;2.20;;;-2.00;99.90;;;;;;5102995;28;20044;-66
2022/12/13 07:19:12;;;;;;;4.43;2.63;;;-2.10;99.90;;;;;;5102401;28;20410;-63
2022/12/13 07:21:50;;;;;;;4.25;1.98;;;-2.00;99.90;;;;;;5097773;28;20568;-63
2022/12/13 07:24:17;;;;;;;2.78;2.22;;;-2.00;99.90;;;;;;5103840;28;20105;-65
2022/12/13 07:26:45;;;;;;;5.75;1.70;;;-2.10;99.90;;;;;;5101443;28;20042;-62
2022/12/13 07:29:12;;;;;;;2.63;1.80;;;-2.20;99.90;;;;;;5101188;28;20612;-64
2022/12/13 07:31:48;;;;;;;5.70;1.75;;;-2.20;99.90;;;;;;5101830;27;20035;-63
2022/12/13 07:34:15;;;;;;;5.10;2.13;;;-2.20;99.90;;;;;;5099076;28;20096;-62
2022/12/13 07:36:42;;;;;;;3.70;1.25;;;-2.20;99.90;;;;;;5101852;28;20055;-65
2022/12/13 07:39:09;;;;;;;5.25;3.20;;;-2.20;99.90;;;;;;5103405;28;20047;-64
2022/12/13 07:41:36;;;;;;;4.65;2.05;;;-2.20;99.90;;;;;;5098466;28;20047;-64
2022/12/13 07:44:04;;;;;;;3.28;2.13;;;-2.20;99.90;;;;;;5083170;28;20048;-63
2022/12/13 07:46:33;;;;;;;4.72;1.48;;;-2.20;99.90;;;;;;5100739;28;20241;-64
2022/12/13 07:49:01;;;;;;;1.55;1.30;;;-2.20;99.90;;;;;;5101742;28;20052;-66
2022/12/13 07:51:28;;;;;;;4.88;2.10;;;-2.20;99.90;;;;;;5099087;28;20489;-65
2022/12/13 07:53:56;;;;;;;1.98;1.77;;;-2.20;99.90;;;;;;5099954;28;20048;-65
2022/12/13 07:56:23;;;;;;;3.20;1.83;;;-2.20;99.90;;;;;;5094272;28;20508;-63
2022/12/13 07:58:50;;;;;;;4.25;2.10;;;-2.20;99.90;;;;;;5099228;28;20054;-64
2022/12/13 08:01:17;;;;;;;9.25;2.15;;;-2.20;99.90;;;;;;5100450;28;20051;-63
2022/12/13 08:03:47;;;;;;;6.10;2.40;;;-2.20;99.90;;;;;;5100057;28;20047;-64
2022/12/13 08:06:14;;;;;;;3.95;2.40;;;-2.30;99.90;;;;;;5101104;28;20488;-63
2022/12/13 08:08:41;;;;;;;9.45;3.67;;;-2.30;99.90;;;;;;5100206;28;20052;-65
2022/12/13 08:11:15;;;;;;;8.70;2.73;;;-2.30;99.90;;;;;;5100433;28;20048;-64
2022/12/13 08:13:42;;;;;;;3.30;2.15;;;-2.30;99.90;;;;;;5101493;28;20122;-64
2022/12/13 08:16:11;;;;;;;4.63;2.03;;;-2.30;99.90;;;;;;5102168;28;20044;-63
2022/12/13 08:18:55;;;;;;;6.78;2.78;;;-2.30;99.90;;;;;;5101486;28;20052;-63
2022/12/13 08:21:40;;;;;;;3.10;1.30;;;-2.30;99.90;;;;;;5099418;28;20160;-64
2022/12/13 08:24:28;;;;;;;6.38;2.03;;;-2.30;99.90;;;;;;5101889;28;20060;-65
2022/12/13 08:27:00;;;;;;;4.22;1.80;;;-2.30;99.90;;;;;;5105652;27;20477;-65
2022/12/13 08:29:30;;;;;;;4.60;1.70;;;-2.30;99.90;;;;;;5099532;28;20092;-64
2022/12/13 08:32:06;;;;;;;4.57;1.63;;;-2.30;99.90;;;;;;5103138;28;20058;-63
2022/12/13 08:34:33;;;;;;;5.68;2.17;;;-2.30;99.90;;;;;;5102311;28;20448;-63
2022/12/13 08:37:00;;;;;;;4.35;2.20;;;-2.30;99.90;;;;;;5101391;28;20101;-64
2022/12/13 08:39:33;;;;;;;2.58;1.90;;;-2.40;99.90;;;;;;5098665;28;20040;-65
2022/12/13 08:42:07;;;;;;;3.53;1.73;;;-2.30;99.90;;;;;;5078052;28;20451;-63
2022/12/13 08:44:51;;;;;;;6.70;2.28;;;-2.20;99.90;;;;;;5099307;28;20074;-63
2022/12/13 08:47:20;;;;;;;7.68;3.40;;;-2.20;99.90;;;;;;5093017;28;20455;-66
2022/12/13 08:49:58;;;;;;;5.18;1.67;;;-2.30;99.90;;;;;;5102000;28;20039;-65
2022/12/13 08:52:28;;;;;;;2.72;1.80;;;-2.30;99.90;;;;;;5101291;28;20077;-64
2022/12/13 08:54:55;;;;;;;6.55;2.15;;;-2.30;99.90;;;;;;5100596;27;20046;-63
2022/12/13 08:57:22;;;;;;;5.28;2.42;;;-2.30;99.90;;;;;;5096640;28;20044;-67
2022/12/13 08:59:48;;;;;;;3.13;1.60;;;-2.40;99.90;;;;;;5102001;28;20053;-65
2022/12/13 09:02:16;;;;;;;4.55;1.60;;;-2.30;99.90;;;;;;5091228;28;20133;-64
2022/12/13 09:04:43;;;;;;;3.45;1.92;;;-2.30;99.90;;;;;;5100707;28;20046;-64
2022/12/13 09:07:10;;;;;;;6.45;2.53;;;-2.30;99.90;;;;;;5094538;28;20056;-64
2022/12/13 09:09:36;;;;;;;2.27;1.63;;;-2.40;99.90;;;;;;5097286;27;20044;-63
2022/12/13 09:12:04;;;;;;;4.63;1.60;;;-2.30;99.90;;;;;;5100422;28;20476;-62
2022/12/13 09:14:37;;;;;;;6.30;2.03;;;-2.30;99.90;;;;;;5097663;28;20047;-63
2022/12/13 09:17:13;;;;;;;4.97;3.27;;;-2.30;99.90;;;;;;5097109;28;20055;-68
2022/12/13 09:19:51;;;;;;;5.87;2.00;;;-2.30;99.90;;;;;;5097607;28;20085;-64
2022/12/13 09:22:24;;;;;;;4.63;2.55;;;-2.30;99.90;;;;;;5100489;28;20043;-64
2022/12/13 09:25:00;;;;;;;4.07;2.17;;;-2.30;99.90;;;;;;5094480;28;20161;-63
2022/12/13 09:27:29;;;;;;;4.53;2.15;;;-2.30;99.90;;;;;;5095634;28;20070;-65
2022/12/13 09:30:07;;;;;;;3.50;1.80;;;-2.30;99.90;;;;;;5103585;28;20350;-63
2022/12/13 09:32:33;;;;;;;5.47;1.98;;;-2.20;99.90;;;;;;5100253;28;20063;-63
2022/12/13 09:35:00;;;;;;;4.15;2.05;;;-2.30;99.90;;;;;;5100099;28;20126;-65
2022/12/13 09:37:29;;;;;;;3.20;1.80;;;-2.30;99.90;;;;;;5093393;28;20531;-63
2022/12/13 09:39:55;;;;;;;2.97;1.58;;;-2.30;99.90;;;;;;5099468;28;20044;-63
2022/12/13 09:42:28;;;;;;;6.22;1.77;;;-2.30;99.90;;;;;;5100078;28;20066;-68
2022/12/13 09:45:05;;;;;;;3.00;2.10;;;-2.30;99.90;;;;;;5097091;28;20130;-63
2022/12/13 09:47:50;;;;;;;5.97;1.95;;;-2.30;99.90;;;;;;5099442;28;20124;-63
2022/12/13 09:50:27;;;;;;;3.50;1.70;;;-2.30;99.90;;;;;;5082310;28;20051;-65
2022/12/13 09:53:05;;;;;;;2.85;1.85;;;-2.30;99.90;;;;;;5092339;28;20050;-63
2022/12/13 09:55:49;;;;;;;5.18;2.00;;;-2.50;99.90;;;;;;5091220;28;20066;-63
2022/12/13 09:58:30;;;;;;;5.60;1.73;;;-2.40;99.90;;;;;;5098997;28;20098;-65
2022/12/13 10:00:58;;;;;;;6.65;2.88;;;-2.40;99.90;;;;;;5098256;28;20150;-64
2022/12/13 10:03:25;;;;;;;4.40;1.98;;;-2.30;99.90;;;;;;5094318;28;20048;-66
2022/12/13 10:06:06;;;;;;;8.05;2.50;;;-2.40;99.90;;;;;;5104969;28;20044;-64
2022/12/13 10:08:37;;;;;;;;;;;-2.30;99.90;;;;;;5093862;28;20044;-63
2022/12/13 10:11:04;;;;;;;2.50;1.92;;;-2.30;99.90;;;;;;5095965;28;20002;-63
2022/12/13 10:14:05;;;;;;;6.57;3.40;;;-2.40;99.90;;;;;;5098717;28;20048;-63
2022/12/13 10:16:35;;;;;;;4.05;1.35;;;-2.30;99.90;;;;;;5088068;28;20125;-64
2022/12/13 10:19:20;;;;;;;8.85;1.95;;;-2.30;99.90;;;;;;5095611;28;20097;-63
2022/12/13 10:21:57;;;;;;;3.77;2.37;;;-2.30;99.90;;;;;;5098587;28;20081;-65
2022/12/13 10:24:29;;;;;;;9.82;3.00;;;-2.30;99.90;;;;;;5095481;28;20056;-64
2022/12/13 10:27:12;;;;;;;2.25;1.77;;;-2.30;99.90;;;;;;5100959;28;20053;-65
2022/12/13 10:30:04;;;;;;;5.38;1.95;;;-2.30;99.90;;;;;;5095938;28;20102;-63
2022/12/13 10:32:41;;;;;;;2.70;1.60;;;-2.20;99.90;;;;;;5097125;28;20056;-64
2022/12/13 10:35:25;;;;;;;5.72;1.40;;;-2.20;99.90;;;;;;5092418;28;20048;-63
2022/12/13 10:37:53;;;;;;;2.80;1.88;;;-2.30;99.90;;;;;;5094540;28;20131;-64
2022/12/13 10:40:39;;;;;;;4.60;2.10;;;-2.40;99.90;;;;;;5098714;28;20155;-65
2022/12/13 10:43:24;;;;;;;7.72;2.03;;;-2.40;99.90;;;;;;5097121;28;20056;-64
2022/12/13 10:45:55;;;;;;;3.67;1.88;;;-2.40;99.90;;;;;;5093237;28;20438;-65
2022/12/13 10:48:49;;;;;;;6.63;2.38;;;-2.40;99.90;;;;;;5095464;28;20044;-65
2022/12/13 10:51:19;;;;;;;4.60;2.08;;;-2.50;99.90;;;;;;5089126;28;20074;-64
2022/12/13 10:53:54;;;;;;;3.50;2.00;;;-2.50;99.90;;;;;;5097161;28;20048;-64
2022/12/13 10:56:31;;;;;;;4.95;2.10;;;-2.50;99.90;;;;;;5100934;28;20426;-65
2022/12/13 10:59:23;;;;;;;3.17;2.13;;;-2.40;99.90;;;;;;5098076;28;20083;-64
2022/12/13 11:01:50;;;;;;;4.28;1.88;;;-2.50;99.90;;;;;;5093885;28;20074;-64
2022/12/13 11:04:30;;;;;;;1.58;1.45;;;-2.60;99.90;;;;;;5098680;28;20448;-65
2022/12/13 11:07:32;;;;;;;3.35;2.97;;;-2.60;99.90;;;;;;5095594;28;20051;-64
2022/12/13 11:10:20;;;;;;;3.85;2.50;;;-2.50;99.90;;;;;;5094569;28;20070;-64
2022/12/13 11:13:02;;;;;;;2.30;1.73;;;-2.60;99.90;;;;;;5091727;28;20047;-65
2022/12/13 11:15:33;;;;;;;5.20;2.53;;;-2.60;99.90;;;;;;5098869;28;20113;-64
2022/12/13 11:18:07;;;;;;;3.30;1.70;;;-2.60;99.90;;;;;;5102039;28;20113;-64
2022/12/13 11:20:46;;;;;;;3.22;1.77;;;-2.60;99.90;;;;;;5103168;28;20064;-66
2022/12/13 11:23:27;;;;;;;6.03;2.03;;;-2.60;99.90;;;;;;5099777;28;20130;-67
2022/12/13 11:25:57;;;;;;;2.13;1.73;;;-2.60;99.90;;;;;;5103622;28;20055;-65
2022/12/13 11:28:39;;;;;;;2.75;2.25;;;-2.60;99.90;;;;;;5103440;28;20062;-65
2022/12/13 11:31:28;;;;;;;6.43;3.78;;;-2.70;99.90;;;;;;5096810;28;20056;-63
2022/12/13 11:34:46;;;;;;;3.55;1.70;;;-2.60;99.90;;;;;;5098264;28;20044;-63
2022/12/13 11:37:13;;;;;;;4.80;1.75;;;-2.60;99.90;;;;;;5042433;28;20052;-65
2022/12/13 11:39:47;;;;;;;4.57;2.03;;;-2.60;99.90;;;;;;5097894;28;20067;-63
2022/12/13 11:42:16;;;;;;;3.67;1.33;;;-2.70;99.90;;;;;;5098632;28;20044;-68
2022/12/13 11:45:13;;;;;;;5.05;2.00;;;-2.70;99.90;;;;;;5098976;28;20130;-63
2022/12/13 11:48:17;;;;;;;2.15;1.73;;;-2.70;99.90;;;;;;5096121;28;20195;-62
2022/12/13 11:50:48;;;;;;;4.00;1.90;;;-2.70;99.90;;;;;;5099909;28;20071;-66
2022/12/13 11:53:33;;;;;;;7.80;2.22;;;-2.70;99.90;;;;;;5098860;28;20051;-65
2022/12/13 11:56:18;;;;;;;5.77;2.50;;;-2.70;99.90;;;;;;5099572;28;20044;-63
2022/12/13 11:58:53;;;;;;;4.13;2.00;;;-2.70;99.90;;;;;;5101963;28;20439;-63
2022/12/13 12:01:40;;;;;;;4.97;2.47;;;-2.70;99.90;;;;;;5099325;28;20143;-66
2022/12/13 12:04:31;;;;;;;3.70;1.95;;;-2.60;99.90;;;;;;5097033;28;20058;-64
2022/12/13 12:07:13;;;;;;;6.07;2.47;;;-2.70;99.90;;;;;;5102236;28;20051;-66
2022/12/13 12:10:10;;;;;;;3.22;2.53;;;-2.60;99.90;;;;;;5093404;28;20047;-64
2022/12/13 12:12:43;;;;;;;7.43;2.73;;;-2.50;99.90;;;;;;5100887;28;20055;-63
2022/12/13 12:15:31;;;;;;;4.87;1.90;;;-2.70;99.90;;;;;;5101851;28;20047;-66
2022/12/13 12:18:15;;;;;;;3.42;1.48;;;-2.70;99.90;;;;;;5100874;28;20519;-64
2022/12/13 12:21:23;;;;;;;4.97;2.20;;;-2.70;99.90;;;;;;5101006;28;20040;-64
2022/12/13 12:24:47;;;;;;;3.35;2.05;;;-2.70;99.90;;;;;;5017067;28;20045;-65
2022/12/13 12:27:27;;;;;;;2.10;1.95;;;-2.70;99.90;;;;;;5098749;28;20248;-64
2022/12/13 12:30:03;;;;;;;3.25;2.10;;;-2.60;99.90;;;;;;5100567;28;20051;-64
2022/12/13 12:32:40;;;;;;;4.57;1.47;;;-2.60;99.90;;;;;;5099421;28;20051;-63
2022/12/13 12:35:32;;;;;;;3.70;1.60;;;-2.70;99.90;;;;;;5099262;28;20066;-63
2022/12/13 12:38:11;;;;;;;4.15;1.98;;;-2.70;99.90;;;;;;5101557;28;20139;-65
2022/12/13 12:41:13;;;;;;;2.45;2.25;;;-2.70;99.90;;;;;;5099490;28;20158;-63
2022/12/13 12:43:43;;;;;;;5.37;1.83;;;-2.70;99.90;;;;;;5097362;28;20036;-64
2022/12/13 12:46:29;;;;;;;3.87;1.90;;;-2.70;99.90;;;;;;5101178;28;20036;-66
2022/12/13 12:49:08;;;;;;;2.90;2.25;;;-2.70;99.90;;;;;;5101172;28;20063;-63
2022/12/13 12:52:03;;;;;;;4.43;2.33;;;-2.70;99.90;;;;;;5095864;28;20076;-64
2022/12/13 12:55:02;;;;;;;6.00;1.55;;;-2.70;99.90;;;;;;5092513;28;20051;-63
2022/12/13 12:57:48;;;;;;;2.13;1.75;;;-2.70;99.90;;;;;;5096989;28;20123;-65
2022/12/13 13:00:23;;;;;;;1.42;1.33;;;-2.60;99.90;;;;;;5100643;28;20052;-62
2022/12/13 13:03:11;;;;;;;3.00;1.63;;;-2.70;99.90;;;;;;5099149;28;20048;-63
2022/12/13 13:05:51;;;;;;;4.15;1.67;;;-2.70;99.90;;;;;;5100185;28;20492;-63
2022/12/13 13:08:30;;;;;;;2.25;1.80;;;-2.70;99.90;;;;;;5088528;28;20524;-68
2022/12/13 13:10:58;;;;;;;2.08;1.83;;;-2.60;99.90;;;;;;5100671;28;20201;-64
2022/12/13 13:13:46;;;;;;;3.40;1.98;;;-2.60;99.90;;;;;;5096189;28;20058;-63
2022/12/13 13:16:36;;;;;;;2.78;1.75;;;-2.60;99.90;;;;;;5097729;28;20493;-66
2022/12/13 13:19:23;;;;;;;;;;;-2.70;99.90;;;;;;5097806;28;20056;-64
2022/12/13 13:21:55;;;;;;;1.70;1.45;;;-2.80;99.90;;;;;;5051282;28;20007;-63
2022/12/13 13:24:33;;;;;;;2.90;1.50;;;-2.80;99.90;;;;;;5100974;27;20459;-63
2022/12/13 13:27:09;;;;;;;3.83;1.35;;;-2.90;99.90;;;;;;5098303;28;20048;-63
2022/12/13 13:29:40;;;;;;;3.55;1.70;;;-2.90;99.90;;;;;;5096019;28;20047;-63